Novomoskovsk, Russia
Current Conditions -  °F | °C
As of 7:00 AM on Monday 24 Nov 2014 (Local Time) from UUDD Reporting Station
Haze Haze  
Wind Chill: 19°   Ceiling: 300
Heat Index: 27°   Visibility: 1.7mi
Dew Point: 27°   Wind: 7mph
Humidity: 100%   Direction: 130°SE
Pressure: 30.65"   Gusts: NA
Location:  54.09°N, 38.22°E
Report Text: UUDD 240400Z 13003MPS 2800 BR OVC003 M03/M03 Q1038 6429009514290095 TEMPO 1000
Loading
Personal Weather Stations






























Interactive Weather Map New forecast layout! Learn more

10-Day Weather Forecast

Advertisements
Track Severe Weather on mobile